sensor_id;sensor_type;location;lat;lon;timestamp;temperature;humidity
10889;DHT22;5497;51.388;6.780;2022-10-31T00:00:29;14.00;99.90
10889;DHT22;5497;51.388;6.780;2022-10-31T00:05:22;13.80;99.90
10889;DHT22;5497;51.388;6.780;2022-10-31T00:07:51;13.80;99.90
10889;DHT22;5497;51.388;6.780;2022-10-31T00:10:19;13.70;99.90
10889;DHT22;5497;51.388;6.780;2022-10-31T00:12:46;13.60;99.90
10889;DHT22;5497;51.388;6.780;2022-10-31T00:15:13;13.50;99.90
10889;DHT22;5497;51.388;6.780;2022-10-31T00:17:39;13.50;99.90
10889;DHT22;5497;51.388;6.780;2022-10-31T00:20:06;13.40;99.90
10889;DHT22;5497;51.388;6.780;2022-10-31T00:22:33;13.40;99.90
10889;DHT22;5497;51.388;6.780;2022-10-31T00:25:00;13.30;99.90
10889;DHT22;5497;51.388;6.780;2022-10-31T00:27:28;13.30;99.90
10889;DHT22;5497;51.388;6.780;2022-10-31T00:29:55;13.70;99.90
10889;DHT22;5497;51.388;6.780;2022-10-31T00:32:21;13.20;99.90
10889;DHT22;5497;51.388;6.780;2022-10-31T00:34:48;13.20;99.90
10889;DHT22;5497;51.388;6.780;2022-10-31T00:37:15;13.20;99.90
10889;DHT22;5497;51.388;6.780;2022-10-31T00:39:43;13.20;99.90
10889;DHT22;5497;51.388;6.780;2022-10-31T00:42:10;13.10;99.90
10889;DHT22;5497;51.388;6.780;2022-10-31T00:44:39;13.10;99.90
10889;DHT22;5497;51.388;6.780;2022-10-31T00:47:05;13.10;99.90
10889;DHT22;5497;51.388;6.780;2022-10-31T00:49:32;13.10;99.90
10889;DHT22;5497;51.388;6.780;2022-10-31T00:51:59;13.10;99.90
10889;DHT22;5497;51.388;6.780;2022-10-31T00:54:25;13.10;99.90
10889;DHT22;5497;51.388;6.780;2022-10-31T00:56:52;13.10;99.90
10889;DHT22;5497;51.388;6.780;2022-10-31T00:59:19;13.10;99.90
10889;DHT22;5497;51.388;6.780;2022-10-31T01:01:47;13.10;99.90
10889;DHT22;5497;51.388;6.780;2022-10-31T01:04:14;13.20;99.90
10889;DHT22;5497;51.388;6.780;2022-10-31T01:06:41;13.20;99.90
10889;DHT22;5497;51.388;6.780;2022-10-31T01:09:08;13.30;99.90
10889;DHT22;5497;51.388;6.780;2022-10-31T01:11:35;13.20;99.90
10889;DHT22;5497;51.388;6.780;2022-10-31T01:14:05;13.30;99.90
10889;DHT22;5497;51.388;6.780;2022-10-31T01:16:32;13.30;99.90
10889;DHT22;5497;51.388;6.780;2022-10-31T01:19:00;13.30;99.90
10889;DHT22;5497;51.388;6.780;2022-10-31T01:21:27;13.30;99.90
10889;DHT22;5497;51.388;6.780;2022-10-31T01:23:57;13.30;99.90
10889;DHT22;5497;51.388;6.780;2022-10-31T01:26:24;13.30;99.90
10889;DHT22;5497;51.388;6.780;2022-10-31T01:28:53;13.30;99.90
10889;DHT22;5497;51.388;6.780;2022-10-31T01:31:22;13.30;99.90
10889;DHT22;5497;51.388;6.780;2022-10-31T01:33:49;13.30;99.90
10889;DHT22;5497;51.388;6.780;2022-10-31T01:36:19;13.30;99.90
10889;DHT22;5497;51.388;6.780;2022-10-31T01:38:50;13.30;99.90
10889;DHT22;5497;51.388;6.780;2022-10-31T01:41:17;13.20;99.90
10889;DHT22;5497;51.388;6.780;2022-10-31T01:43:45;13.10;99.90
10889;DHT22;5497;51.388;6.780;2022-10-31T01:46:12;13.00;99.90
10889;DHT22;5497;51.388;6.780;2022-10-31T01:48:40;13.00;99.90
10889;DHT22;5497;51.388;6.780;2022-10-31T01:51:07;12.90;99.90
10889;DHT22;5497;51.388;6.780;2022-10-31T01:53:36;12.80;99.90
10889;DHT22;5497;51.388;6.780;2022-10-31T01:56:03;12.80;99.90
10889;DHT22;5497;51.388;6.780;2022-10-31T01:58:30;12.70;99.90
10889;DHT22;5497;51.388;6.780;2022-10-31T02:00:58;12.70;99.90
10889;DHT22;5497;51.388;6.780;2022-10-31T02:03:25;12.60;99.90
10889;DHT22;5497;51.388;6.780;2022-10-31T02:05:53;12.60;99.90
10889;DHT22;5497;51.388;6.780;2022-10-31T02:08:22;12.60;99.90
10889;DHT22;5497;51.388;6.780;2022-10-31T02:10:51;12.60;99.90
10889;DHT22;5497;51.388;6.780;2022-10-31T02:13:18;12.60;99.90
10889;DHT22;5497;51.388;6.780;2022-10-31T02:15:49;12.60;99.90
10889;DHT22;5497;51.388;6.780;2022-10-31T02:18:17;12.50;99.90
10889;DHT22;5497;51.388;6.780;2022-10-31T02:20:48;13.60;99.90
10889;DHT22;5497;51.388;6.780;2022-10-31T02:29:08;12.50;99.90
10889;DHT22;5497;51.388;6.780;2022-10-31T02:31:40;12.50;99.90
10889;DHT22;5497;51.388;6.780;2022-10-31T02:34:11;12.50;99.90
10889;DHT22;5497;51.388;6.780;2022-10-31T02:36:41;14.50;99.90
10889;DHT22;5497;51.388;6.780;2022-10-31T02:39:11;12.50;99.90
10889;DHT22;5497;51.388;6.780;2022-10-31T02:41:44;12.40;99.90
10889;DHT22;5497;51.388;6.780;2022-10-31T02:44:15;12.40;99.90
10889;DHT22;5497;51.388;6.780;2022-10-31T02:46:45;12.20;99.90
10889;DHT22;5497;51.388;6.780;2022-10-31T02:49:18;12.30;99.90
10889;DHT22;5497;51.388;6.780;2022-10-31T02:51:45;12.30;99.90
10889;DHT22;5497;51.388;6.780;2022-10-31T02:54:17;12.20;99.90
10889;DHT22;5497;51.388;6.780;2022-10-31T02:56:44;12.20;99.90
10889;DHT22;5497;51.388;6.780;2022-10-31T02:59:11;12.20;99.90
10889;DHT22;5497;51.388;6.780;2022-10-31T03:01:52;12.20;99.90
10889;DHT22;5497;51.388;6.780;2022-10-31T03:07:21;12.10;99.90
10889;DHT22;5497;51.388;6.780;2022-10-31T03:09:52;12.00;99.90
10889;DHT22;5497;51.388;6.780;2022-10-31T03:12:22;12.00;99.90
10889;DHT22;5497;51.388;6.780;2022-10-31T03:14:53;12.00;99.90
10889;DHT22;5497;51.388;6.780;2022-10-31T03:17:25;11.90;99.90
10889;DHT22;5497;51.388;6.780;2022-10-31T03:19:54;11.90;99.90
10889;DHT22;5497;51.388;6.780;2022-10-31T03:22:22;11.80;99.90
10889;DHT22;5497;51.388;6.780;2022-10-31T03:24:50;11.70;99.90
10889;DHT22;5497;51.388;6.780;2022-10-31T03:27:20;11.70;99.90
10889;DHT22;5497;51.388;6.780;2022-10-31T03:29:48;11.80;99.90
10889;DHT22;5497;51.388;6.780;2022-10-31T03:32:17;11.70;99.90
10889;DHT22;5497;51.388;6.780;2022-10-31T03:34:46;11.70;99.90
10889;DHT22;5497;51.388;6.780;2022-10-31T03:37:15;11.60;99.90
10889;DHT22;5497;51.388;6.780;2022-10-31T03:39:44;11.60;99.90
10889;DHT22;5497;51.388;6.780;2022-10-31T03:42:15;11.60;99.90
10889;DHT22;5497;51.388;6.780;2022-10-31T03:44:42;11.60;99.90
10889;DHT22;5497;51.388;6.780;2022-10-31T03:47:10;11.50;99.90
10889;DHT22;5497;51.388;6.780;2022-10-31T03:49:37;11.50;99.90
10889;DHT22;5497;51.388;6.780;2022-10-31T03:52:07;11.50;99.90
10889;DHT22;5497;51.388;6.780;2022-10-31T03:54:36;11.50;99.90
10889;DHT22;5497;51.388;6.780;2022-10-31T03:57:07;11.50;99.90
10889;DHT22;5497;51.388;6.780;2022-10-31T03:59:39;11.50;99.90
10889;DHT22;5497;51.388;6.780;2022-10-31T04:02:10;11.50;99.90
10889;DHT22;5497;51.388;6.780;2022-10-31T04:04:39;11.50;99.90
10889;DHT22;5497;51.388;6.780;2022-10-31T04:07:07;11.60;99.90
10889;DHT22;5497;51.388;6.780;2022-10-31T04:09:36;11.60;99.90
10889;DHT22;5497;51.388;6.780;2022-10-31T04:12:04;11.60;99.90
10889;DHT22;5497;51.388;6.780;2022-10-31T04:14:54;11.60;99.90
10889;DHT22;5497;51.388;6.780;2022-10-31T04:17:22;11.70;99.90
10889;DHT22;5497;51.388;6.780;2022-10-31T04:19:50;11.60;99.90
10889;DHT22;5497;51.388;6.780;2022-10-31T04:22:18;11.70;99.90
10889;DHT22;5497;51.388;6.780;2022-10-31T04:24:45;11.70;99.90
10889;DHT22;5497;51.388;6.780;2022-10-31T04:27:14;11.60;99.90
10889;DHT22;5497;51.388;6.780;2022-10-31T04:29:41;11.60;99.90
10889;DHT22;5497;51.388;6.780;2022-10-31T04:32:08;11.60;99.90
10889;DHT22;5497;51.388;6.780;2022-10-31T04:34:36;11.60;99.90
10889;DHT22;5497;51.388;6.780;2022-10-31T04:37:04;9.50;99.90
10889;DHT22;5497;51.388;6.780;2022-10-31T04:39:33;11.60;99.90
10889;DHT22;5497;51.388;6.780;2022-10-31T04:42:18;11.60;99.90
10889;DHT22;5497;51.388;6.780;2022-10-31T04:44:45;11.60;99.90
10889;DHT22;5497;51.388;6.780;2022-10-31T04:47:13;11.60;99.90
10889;DHT22;5497;51.388;6.780;2022-10-31T04:49:40;11.70;99.90
10889;DHT22;5497;51.388;6.780;2022-10-31T04:52:07;11.70;99.90
10889;DHT22;5497;51.388;6.780;2022-10-31T04:54:35;11.70;99.90
10889;DHT22;5497;51.388;6.780;2022-10-31T04:57:21;11.70;99.90
10889;DHT22;5497;51.388;6.780;2022-10-31T04:59:48;11.70;99.90
10889;DHT22;5497;51.388;6.780;2022-10-31T05:02:15;11.70;99.90
10889;DHT22;5497;51.388;6.780;2022-10-31T05:04:51;11.60;99.90
10889;DHT22;5497;51.388;6.780;2022-10-31T05:07:18;11.60;99.90
10889;DHT22;5497;51.388;6.780;2022-10-31T05:09:46;11.60;99.90
10889;DHT22;5497;51.388;6.780;2022-10-31T05:12:13;11.60;99.90
10889;DHT22;5497;51.388;6.780;2022-10-31T05:15:09;11.40;99.90
10889;DHT22;5497;51.388;6.780;2022-10-31T05:17:55;11.50;99.90
10889;DHT22;5497;51.388;6.780;2022-10-31T05:20:26;11.40;99.90
10889;DHT22;5497;51.388;6.780;2022-10-31T05:22:56;12.10;99.90
10889;DHT22;5497;51.388;6.780;2022-10-31T05:25:25;11.30;99.90
10889;DHT22;5497;51.388;6.780;2022-10-31T05:27:53;11.30;99.90
10889;DHT22;5497;51.388;6.780;2022-10-31T05:30:20;10.80;99.90
10889;DHT22;5497;51.388;6.780;2022-10-31T05:32:47;11.20;99.90
10889;DHT22;5497;51.388;6.780;2022-10-31T05:35:43;11.20;99.90
10889;DHT22;5497;51.388;6.780;2022-10-31T05:38:33;11.20;99.90
10889;DHT22;5497;51.388;6.780;2022-10-31T05:41:21;11.20;99.90
10889;DHT22;5497;51.388;6.780;2022-10-31T05:43:48;11.30;99.90
10889;DHT22;5497;51.388;6.780;2022-10-31T05:46:18;11.20;99.90
10889;DHT22;5497;51.388;6.780;2022-10-31T05:49:03;11.30;99.90
10889;DHT22;5497;51.388;6.780;2022-10-31T05:51:48;11.20;99.90
10889;DHT22;5497;51.388;6.780;2022-10-31T05:54:16;11.30;99.90
10889;DHT22;5497;51.388;6.780;2022-10-31T05:56:46;11.30;99.90
10889;DHT22;5497;51.388;6.780;2022-10-31T05:59:12;11.30;99.90
10889;DHT22;5497;51.388;6.780;2022-10-31T06:01:39;11.30;99.90
10889;DHT22;5497;51.388;6.780;2022-10-31T06:04:19;11.40;99.90
10889;DHT22;5497;51.388;6.780;2022-10-31T06:06:46;11.40;99.90
10889;DHT22;5497;51.388;6.780;2022-10-31T06:09:12;11.40;99.90
10889;DHT22;5497;51.388;6.780;2022-10-31T06:11:39;11.40;99.90
10889;DHT22;5497;51.388;6.780;2022-10-31T06:14:30;11.40;99.90
10889;DHT22;5497;51.388;6.780;2022-10-31T06:16:57;9.50;99.90
10889;DHT22;5497;51.388;6.780;2022-10-31T06:19:41;11.30;99.90
10889;DHT22;5497;51.388;6.780;2022-10-31T06:22:10;11.30;99.90
10889;DHT22;5497;51.388;6.780;2022-10-31T06:24:37;11.30;99.90
10889;DHT22;5497;51.388;6.780;2022-10-31T06:27:17;11.30;99.90
10889;DHT22;5497;51.388;6.780;2022-10-31T06:29:47;11.30;99.90
10889;DHT22;5497;51.388;6.780;2022-10-31T06:32:22;11.20;99.90
10889;DHT22;5497;51.388;6.780;2022-10-31T06:34:49;11.20;99.90
10889;DHT22;5497;51.388;6.780;2022-10-31T06:37:16;11.20;99.90
10889;DHT22;5497;51.388;6.780;2022-10-31T06:39:46;11.20;99.90
10889;DHT22;5497;51.388;6.780;2022-10-31T06:42:15;11.20;99.90
10889;DHT22;5497;51.388;6.780;2022-10-31T06:44:42;11.30;99.90
10889;DHT22;5497;51.388;6.780;2022-10-31T06:47:51;11.30;99.90
10889;DHT22;5497;51.388;6.780;2022-10-31T06:50:24;11.30;99.90
10889;DHT22;5497;51.388;6.780;2022-10-31T06:52:52;12.80;99.90
10889;DHT22;5497;51.388;6.780;2022-10-31T06:55:19;11.40;99.90
10889;DHT22;5497;51.388;6.780;2022-10-31T06:57:51;11.50;99.90
10889;DHT22;5497;51.388;6.780;2022-10-31T07:00:18;11.50;99.90
10889;DHT22;5497;51.388;6.780;2022-10-31T07:02:56;11.50;99.90
10889;DHT22;5497;51.388;6.780;2022-10-31T07:05:23;11.60;99.90
10889;DHT22;5497;51.388;6.780;2022-10-31T07:07:51;11.70;99.90
10889;DHT22;5497;51.388;6.780;2022-10-31T07:10:20;11.70;99.90
10889;DHT22;5497;51.388;6.780;2022-10-31T07:12:56;11.80;99.90
10889;DHT22;5497;51.388;6.780;2022-10-31T07:15:23;11.80;99.90
10889;DHT22;5497;51.388;6.780;2022-10-31T07:17:51;11.80;99.90
10889;DHT22;5497;51.388;6.780;2022-10-31T07:20:20;11.80;99.90
10889;DHT22;5497;51.388;6.780;2022-10-31T07:22:46;11.80;99.90
10889;DHT22;5497;51.388;6.780;2022-10-31T07:25:13;11.90;99.90
10889;DHT22;5497;51.388;6.780;2022-10-31T07:27:58;11.90;99.90
10889;DHT22;5497;51.388;6.780;2022-10-31T07:30:25;11.90;99.90
10889;DHT22;5497;51.388;6.780;2022-10-31T07:32:55;11.90;99.90
10889;DHT22;5497;51.388;6.780;2022-10-31T07:35:25;12.00;99.90
10889;DHT22;5497;51.388;6.780;2022-10-31T07:37:56;12.10;99.90
10889;DHT22;5497;51.388;6.780;2022-10-31T07:40:24;12.10;99.90
10889;DHT22;5497;51.388;6.780;2022-10-31T07:42:52;12.20;99.90
10889;DHT22;5497;51.388;6.780;2022-10-31T07:45:38;12.30;99.90
10889;DHT22;5497;51.388;6.780;2022-10-31T07:48:23;13.50;99.90
10889;DHT22;5497;51.388;6.780;2022-10-31T07:51:14;12.40;99.90
10889;DHT22;5497;51.388;6.780;2022-10-31T07:54:13;12.50;99.90
10889;DHT22;5497;51.388;6.780;2022-10-31T07:56:40;12.70;99.90
10889;DHT22;5497;51.388;6.780;2022-10-31T07:59:06;12.80;99.90
10889;DHT22;5497;51.388;6.780;2022-10-31T08:01:33;12.90;99.90
10889;DHT22;5497;51.388;6.780;2022-10-31T08:04:20;13.00;99.90
10889;DHT22;5497;51.388;6.780;2022-10-31T08:07:09;13.20;99.90
10889;DHT22;5497;51.388;6.780;2022-10-31T08:09:38;13.20;99.90
10889;DHT22;5497;51.388;6.780;2022-10-31T08:12:16;15.00;99.90
10889;DHT22;5497;51.388;6.780;2022-10-31T08:14:43;13.40;99.90
10889;DHT22;5497;51.388;6.780;2022-10-31T08:17:10;13.70;99.90
10889;DHT22;5497;51.388;6.780;2022-10-31T08:19:45;13.80;99.90
10889;DHT22;5497;51.388;6.780;2022-10-31T08:22:16;14.00;99.90
10889;DHT22;5497;51.388;6.780;2022-10-31T08:24:43;14.20;99.90
10889;DHT22;5497;51.388;6.780;2022-10-31T08:27:10;14.40;99.90
10889;DHT22;5497;51.388;6.780;2022-10-31T08:29:38;14.60;99.90
10889;DHT22;5497;51.388;6.780;2022-10-31T08:32:05;14.80;99.90
10889;DHT22;5497;51.388;6.780;2022-10-31T08:34:50;14.90;99.90
10889;DHT22;5497;51.388;6.780;2022-10-31T08:37:37;15.30;99.90
10889;DHT22;5497;51.388;6.780;2022-10-31T08:40:05;15.30;99.90
10889;DHT22;5497;51.388;6.780;2022-10-31T08:42:33;15.50;99.90
10889;DHT22;5497;51.388;6.780;2022-10-31T08:45:00;15.70;99.90
10889;DHT22;5497;51.388;6.780;2022-10-31T08:47:29;15.80;99.90
10889;DHT22;5497;51.388;6.780;2022-10-31T08:49:56;15.90;99.90
10889;DHT22;5497;51.388;6.780;2022-10-31T08:52:23;15.90;99.90
10889;DHT22;5497;51.388;6.780;2022-10-31T08:54:53;16.00;99.90
10889;DHT22;5497;51.388;6.780;2022-10-31T08:57:55;16.00;99.90
10889;DHT22;5497;51.388;6.780;2022-10-31T09:00:23;16.10;99.90
10889;DHT22;5497;51.388;6.780;2022-10-31T09:03:05;16.10;99.90
10889;DHT22;5497;51.388;6.780;2022-10-31T09:05:32;16.10;99.90
10889;DHT22;5497;51.388;6.780;2022-10-31T09:07:59;16.20;99.90
10889;DHT22;5497;51.388;6.780;2022-10-31T09:10:28;16.30;99.90
10889;DHT22;5497;51.388;6.780;2022-10-31T09:12:56;16.30;99.90
10889;DHT22;5497;51.388;6.780;2022-10-31T09:15:43;16.30;99.90
10889;DHT22;5497;51.388;6.780;2022-10-31T09:18:20;16.40;99.90
10889;DHT22;5497;51.388;6.780;2022-10-31T09:20:57;16.30;99.90
10889;DHT22;5497;51.388;6.780;2022-10-31T09:23:26;16.30;99.90
10889;DHT22;5497;51.388;6.780;2022-10-31T09:25:54;16.30;99.90
10889;DHT22;5497;51.388;6.780;2022-10-31T09:28:35;16.20;99.90
10889;DHT22;5497;51.388;6.780;2022-10-31T09:31:10;16.20;99.90
10889;DHT22;5497;51.388;6.780;2022-10-31T09:33:49;16.20;99.90
10889;DHT22;5497;51.388;6.780;2022-10-31T09:36:34;16.20;99.90
10889;DHT22;5497;51.388;6.780;2022-10-31T09:39:02;16.40;99.90
10889;DHT22;5497;51.388;6.780;2022-10-31T09:41:35;16.40;99.90
10889;DHT22;5497;51.388;6.780;2022-10-31T09:44:07;16.50;99.90
10889;DHT22;5497;51.388;6.780;2022-10-31T09:46:39;16.60;99.90
10889;DHT22;5497;51.388;6.780;2022-10-31T09:49:21;16.80;99.90
10889;DHT22;5497;51.388;6.780;2022-10-31T09:51:50;16.80;99.90
10889;DHT22;5497;51.388;6.780;2022-10-31T09:54:26;16.90;99.90
10889;DHT22;5497;51.388;6.780;2022-10-31T09:56:55;17.20;99.90
10889;DHT22;5497;51.388;6.780;2022-10-31T09:59:24;17.20;99.90
10889;DHT22;5497;51.388;6.780;2022-10-31T10:01:54;17.40;99.90
10889;DHT22;5497;51.388;6.780;2022-10-31T10:04:33;17.70;99.90
10889;DHT22;5497;51.388;6.780;2022-10-31T10:07:22;18.10;99.90
10889;DHT22;5497;51.388;6.780;2022-10-31T10:09:54;18.60;99.90
10889;DHT22;5497;51.388;6.780;2022-10-31T10:12:49;18.90;99.90
10889;DHT22;5497;51.388;6.780;2022-10-31T10:15:25;19.20;99.90
10889;DHT22;5497;51.388;6.780;2022-10-31T10:17:57;19.10;99.90
10889;DHT22;5497;51.388;6.780;2022-10-31T10:20:29;19.10;99.90
10889;DHT22;5497;51.388;6.780;2022-10-31T10:23:02;19.10;99.90
10889;DHT22;5497;51.388;6.780;2022-10-31T10:25:33;19.10;99.90
10889;DHT22;5497;51.388;6.780;2022-10-31T10:28:08;19.00;99.90
10889;DHT22;5497;51.388;6.780;2022-10-31T10:30:38;19.00;99.90
10889;DHT22;5497;51.388;6.780;2022-10-31T10:33:09;19.00;99.90
10889;DHT22;5497;51.388;6.780;2022-10-31T10:35:39;19.20;99.90
10889;DHT22;5497;51.388;6.780;2022-10-31T10:38:09;19.30;99.90
10889;DHT22;5497;51.388;6.780;2022-10-31T10:40:36;19.40;99.90
10889;DHT22;5497;51.388;6.780;2022-10-31T10:43:11;19.40;99.90
10889;DHT22;5497;51.388;6.780;2022-10-31T10:45:46;19.40;99.90
10889;DHT22;5497;51.388;6.780;2022-10-31T10:48:34;19.40;99.90
10889;DHT22;5497;51.388;6.780;2022-10-31T10:51:05;19.40;99.90
10889;DHT22;5497;51.388;6.780;2022-10-31T10:53:39;19.50;99.90
10889;DHT22;5497;51.388;6.780;2022-10-31T10:56:27;19.60;99.90
10889;DHT22;5497;51.388;6.780;2022-10-31T10:58:58;19.70;99.90
10889;DHT22;5497;51.388;6.780;2022-10-31T11:01:25;19.80;99.90
10889;DHT22;5497;51.388;6.780;2022-10-31T11:03:51;19.90;99.90
10889;DHT22;5497;51.388;6.780;2022-10-31T11:06:18;20.90;99.90
10889;DHT22;5497;51.388;6.780;2022-10-31T11:08:50;20.00;99.90
10889;DHT22;5497;51.388;6.780;2022-10-31T11:11:23;19.90;99.90
10889;DHT22;5497;51.388;6.780;2022-10-31T11:13:52;19.90;99.90
10889;DHT22;5497;51.388;6.780;2022-10-31T11:16:28;19.80;99.90
10889;DHT22;5497;51.388;6.780;2022-10-31T11:19:04;19.80;99.90
10889;DHT22;5497;51.388;6.780;2022-10-31T11:21:33;19.80;99.90
10889;DHT22;5497;51.388;6.780;2022-10-31T11:24:03;19.90;99.90
10889;DHT22;5497;51.388;6.780;2022-10-31T11:26:30;20.10;99.90
10889;DHT22;5497;51.388;6.780;2022-10-31T11:29:00;20.30;99.90
10889;DHT22;5497;51.388;6.780;2022-10-31T11:31:29;20.40;99.90
10889;DHT22;5497;51.388;6.780;2022-10-31T11:33:58;20.50;99.90
10889;DHT22;5497;51.388;6.780;2022-10-31T11:36:27;20.60;99.90
10889;DHT22;5497;51.388;6.780;2022-10-31T11:38:55;20.70;99.90
10889;DHT22;5497;51.388;6.780;2022-10-31T11:41:24;20.70;99.90
10889;DHT22;5497;51.388;6.780;2022-10-31T11:43:53;20.80;99.90
10889;DHT22;5497;51.388;6.780;2022-10-31T11:46:21;21.00;99.90
10889;DHT22;5497;51.388;6.780;2022-10-31T11:48:50;21.00;99.90
10889;DHT22;5497;51.388;6.780;2022-10-31T11:51:21;21.00;99.90
10889;DHT22;5497;51.388;6.780;2022-10-31T11:53:50;21.00;99.90
10889;DHT22;5497;51.388;6.780;2022-10-31T11:56:17;21.00;99.90
10889;DHT22;5497;51.388;6.780;2022-10-31T11:58:54;21.10;99.90
10889;DHT22;5497;51.388;6.780;2022-10-31T12:01:23;21.10;99.90
10889;DHT22;5497;51.388;6.780;2022-10-31T12:03:53;21.10;99.90
10889;DHT22;5497;51.388;6.780;2022-10-31T12:06:22;21.20;99.90
10889;DHT22;5497;51.388;6.780;2022-10-31T12:08:50;21.10;99.90
10889;DHT22;5497;51.388;6.780;2022-10-31T12:11:27;21.20;99.90
10889;DHT22;5497;51.388;6.780;2022-10-31T12:14:02;21.40;99.90
10889;DHT22;5497;51.388;6.780;2022-10-31T12:16:31;22.00;99.90
10889;DHT22;5497;51.388;6.780;2022-10-31T12:19:02;21.60;99.90
10889;DHT22;5497;51.388;6.780;2022-10-31T12:24:29;21.90;99.90
10889;DHT22;5497;51.388;6.780;2022-10-31T12:27:01;22.00;99.90
10889;DHT22;5497;51.388;6.780;2022-10-31T12:29:36;22.10;99.90
10889;DHT22;5497;51.388;6.780;2022-10-31T12:32:12;22.10;99.90
10889;DHT22;5497;51.388;6.780;2022-10-31T12:34:49;22.20;99.90
10889;DHT22;5497;51.388;6.780;2022-10-31T12:37:21;22.30;99.90
10889;DHT22;5497;51.388;6.780;2022-10-31T12:39:54;22.40;99.90
10889;DHT22;5497;51.388;6.780;2022-10-31T12:42:26;22.50;99.90
10889;DHT22;5497;51.388;6.780;2022-10-31T12:47:57;22.30;99.90
10889;DHT22;5497;51.388;6.780;2022-10-31T12:50:31;22.30;99.90
10889;DHT22;5497;51.388;6.780;2022-10-31T12:53:06;23.40;99.90
10889;DHT22;5497;51.388;6.780;2022-10-31T12:55:38;22.40;99.90
10889;DHT22;5497;51.388;6.780;2022-10-31T12:58:07;22.50;99.90
10889;DHT22;5497;51.388;6.780;2022-10-31T13:00:35;22.50;99.90
10889;DHT22;5497;51.388;6.780;2022-10-31T13:03:05;22.10;99.90
10889;DHT22;5497;51.388;6.780;2022-10-31T13:05:41;22.50;99.90
10889;DHT22;5497;51.388;6.780;2022-10-31T13:08:09;22.80;99.90
10889;DHT22;5497;51.388;6.780;2022-10-31T13:10:37;22.50;99.90
10889;DHT22;5497;51.388;6.780;2022-10-31T13:13:07;22.40;99.90
10889;DHT22;5497;51.388;6.780;2022-10-31T13:15:40;22.30;99.90
10889;DHT22;5497;51.388;6.780;2022-10-31T13:18:14;22.30;99.90
10889;DHT22;5497;51.388;6.780;2022-10-31T13:20:46;22.30;99.90
10889;DHT22;5497;51.388;6.780;2022-10-31T13:23:15;22.00;99.90
10889;DHT22;5497;51.388;6.780;2022-10-31T13:25:45;21.90;99.90
10889;DHT22;5497;51.388;6.780;2022-10-31T13:28:20;21.70;99.90
10889;DHT22;5497;51.388;6.780;2022-10-31T13:30:49;21.50;99.90
10889;DHT22;5497;51.388;6.780;2022-10-31T13:33:18;21.60;99.90
10889;DHT22;5497;51.388;6.780;2022-10-31T13:35:48;21.30;99.90
10889;DHT22;5497;51.388;6.780;2022-10-31T13:38:22;21.20;99.90
10889;DHT22;5497;51.388;6.780;2022-10-31T13:40:51;21.30;99.90
10889;DHT22;5497;51.388;6.780;2022-10-31T13:43:22;21.20;99.90
10889;DHT22;5497;51.388;6.780;2022-10-31T13:45:50;21.20;99.90
10889;DHT22;5497;51.388;6.780;2022-10-31T13:48:19;21.20;99.90
10889;DHT22;5497;51.388;6.780;2022-10-31T13:50:56;21.20;99.90
10889;DHT22;5497;51.388;6.780;2022-10-31T13:53:35;21.70;99.90
10889;DHT22;5497;51.388;6.780;2022-10-31T13:56:03;21.50;99.90
10889;DHT22;5497;51.388;6.780;2022-10-31T13:58:30;21.10;99.90
10889;DHT22;5497;51.388;6.780;2022-10-31T14:00:58;21.10;99.90
10889;DHT22;5497;51.388;6.780;2022-10-31T14:03:24;21.10;99.90
10889;DHT22;5497;51.388;6.780;2022-10-31T14:05:53;21.00;99.90
10889;DHT22;5497;51.388;6.780;2022-10-31T14:08:23;21.00;99.90
10889;DHT22;5497;51.388;6.780;2022-10-31T14:10:51;21.00;99.90
10889;DHT22;5497;51.388;6.780;2022-10-31T14:13:20;21.00;99.90
10889;DHT22;5497;51.388;6.780;2022-10-31T14:15:52;21.00;99.90
10889;DHT22;5497;51.388;6.780;2022-10-31T14:18:21;21.00;99.90
10889;DHT22;5497;51.388;6.780;2022-10-31T14:20:49;21.10;99.90
10889;DHT22;5497;51.388;6.780;2022-10-31T14:23:31;21.10;99.90
10889;DHT22;5497;51.388;6.780;2022-10-31T14:26:16;21.10;99.90
10889;DHT22;5497;51.388;6.780;2022-10-31T14:28:43;21.00;99.90
10889;DHT22;5497;51.388;6.780;2022-10-31T14:31:24;20.90;99.90
10889;DHT22;5497;51.388;6.780;2022-10-31T14:33:53;20.80;99.90
10889;DHT22;5497;51.388;6.780;2022-10-31T14:36:21;20.80;99.90
10889;DHT22;5497;51.388;6.780;2022-10-31T14:38:54;20.70;99.90
10889;DHT22;5497;51.388;6.780;2022-10-31T14:44:11;20.60;99.90
10889;DHT22;5497;51.388;6.780;2022-10-31T14:46:44;20.50;99.90
10889;DHT22;5497;51.388;6.780;2022-10-31T14:49:19;20.30;99.90
10889;DHT22;5497;51.388;6.780;2022-10-31T14:51:48;20.30;99.90
10889;DHT22;5497;51.388;6.780;2022-10-31T14:54:17;20.30;99.90
10889;DHT22;5497;51.388;6.780;2022-10-31T14:56:47;20.20;99.90
10889;DHT22;5497;51.388;6.780;2022-10-31T14:59:15;20.20;99.90
10889;DHT22;5497;51.388;6.780;2022-10-31T15:01:48;20.10;99.90
10889;DHT22;5497;51.388;6.780;2022-10-31T15:04:18;20.00;99.90
10889;DHT22;5497;51.388;6.780;2022-10-31T15:06:46;20.00;99.90
10889;DHT22;5497;51.388;6.780;2022-10-31T15:09:24;19.90;99.90
10889;DHT22;5497;51.388;6.780;2022-10-31T15:11:51;19.80;99.90
10889;DHT22;5497;51.388;6.780;2022-10-31T15:14:21;19.80;99.90
10889;DHT22;5497;51.388;6.780;2022-10-31T15:16:48;19.70;99.90
10889;DHT22;5497;51.388;6.780;2022-10-31T15:19:17;19.60;99.90
10889;DHT22;5497;51.388;6.780;2022-10-31T15:21:45;19.60;99.90
10889;DHT22;5497;51.388;6.780;2022-10-31T15:24:12;19.50;99.90
10889;DHT22;5497;51.388;6.780;2022-10-31T15:26:43;19.50;99.90
10889;DHT22;5497;51.388;6.780;2022-10-31T15:29:12;19.30;99.90
10889;DHT22;5497;51.388;6.780;2022-10-31T15:31:39;19.30;99.90
10889;DHT22;5497;51.388;6.780;2022-10-31T15:34:17;19.30;99.90
10889;DHT22;5497;51.388;6.780;2022-10-31T15:36:47;19.30;99.90
10889;DHT22;5497;51.388;6.780;2022-10-31T15:39:14;19.20;99.90
10889;DHT22;5497;51.388;6.780;2022-10-31T15:41:45;19.10;99.90
10889;DHT22;5497;51.388;6.780;2022-10-31T15:44:14;19.00;99.90
10889;DHT22;5497;51.388;6.780;2022-10-31T15:46:42;18.80;99.90
10889;DHT22;5497;51.388;6.780;2022-10-31T15:49:15;19.10;99.90
10889;DHT22;5497;51.388;6.780;2022-10-31T15:51:45;18.60;99.90
10889;DHT22;5497;51.388;6.780;2022-10-31T15:54:12;18.50;99.90
10889;DHT22;5497;51.388;6.780;2022-10-31T15:56:40;18.40;99.90
10889;DHT22;5497;51.388;6.780;2022-10-31T15:59:13;18.30;99.90
10889;DHT22;5497;51.388;6.780;2022-10-31T16:01:58;18.20;99.90
10889;DHT22;5497;51.388;6.780;2022-10-31T16:04:25;18.10;99.90
10889;DHT22;5497;51.388;6.780;2022-10-31T16:06:57;18.00;99.90
10889;DHT22;5497;51.388;6.780;2022-10-31T16:09:24;18.00;99.90
10889;DHT22;5497;51.388;6.780;2022-10-31T16:11:51;17.90;99.90
10889;DHT22;5497;51.388;6.780;2022-10-31T16:14:22;17.80;99.90
10889;DHT22;5497;51.388;6.780;2022-10-31T16:16:50;17.70;99.90
10889;DHT22;5497;51.388;6.780;2022-10-31T16:19:19;17.70;99.90
10889;DHT22;5497;51.388;6.780;2022-10-31T16:21:47;17.60;99.90
10889;DHT22;5497;51.388;6.780;2022-10-31T16:24:16;17.50;99.90
10889;DHT22;5497;51.388;6.780;2022-10-31T16:26:46;19.00;99.90
10889;DHT22;5497;51.388;6.780;2022-10-31T16:29:23;17.40;99.90
10889;DHT22;5497;51.388;6.780;2022-10-31T16:31:51;17.30;99.90